sensor_id;sensor_type;location;lat;lon;timestamp;temperature;humidity
15815;DHT22;8008;50.024;8.172;2023-11-21T04:00:59;10.20;99.90
15815;DHT22;8008;50.024;8.172;2023-11-21T04:03:28;10.20;99.90
15815;DHT22;8008;50.024;8.172;2023-11-21T04:05:57;10.30;99.90
15815;DHT22;8008;50.024;8.172;2023-11-21T04:08:24;10.30;99.90
15815;DHT22;8008;50.024;8.172;2023-11-21T04:10:53;10.30;99.90
15815;DHT22;8008;50.024;8.172;2023-11-21T04:13:22;10.30;99.90
15815;DHT22;8008;50.024;8.172;2023-11-21T04:15:50;10.30;99.90
15815;DHT22;8008;50.024;8.172;2023-11-21T04:18:19;10.30;99.90
15815;DHT22;8008;50.024;8.172;2023-11-21T04:20:48;10.30;99.90
15815;DHT22;8008;50.024;8.172;2023-11-21T04:23:16;10.40;99.90
15815;DHT22;8008;50.024;8.172;2023-11-21T04:25:44;10.40;99.90
15815;DHT22;8008;50.024;8.172;2023-11-21T04:28:12;10.40;99.90
15815;DHT22;8008;50.024;8.172;2023-11-21T04:30:40;10.40;99.90
15815;DHT22;8008;50.024;8.172;2023-11-21T04:33:08;10.40;99.90
15815;DHT22;8008;50.024;8.172;2023-11-21T04:35:38;10.50;99.90
15815;DHT22;8008;50.024;8.172;2023-11-21T04:38:05;10.40;99.90
15815;DHT22;8008;50.024;8.172;2023-11-21T04:40:33;10.30;99.90
15815;DHT22;8008;50.024;8.172;2023-11-21T04:43:01;10.20;99.90
15815;DHT22;8008;50.024;8.172;2023-11-21T04:45:30;10.10;99.90
15815;DHT22;8008;50.024;8.172;2023-11-21T04:47:59;10.00;99.90
15815;DHT22;8008;50.024;8.172;2023-11-21T04:50:27;10.00;99.90
15815;DHT22;8008;50.024;8.172;2023-11-21T04:52:56;10.10;99.90
15815;DHT22;8008;50.024;8.172;2023-11-21T04:55:24;10.10;99.90
15815;DHT22;8008;50.024;8.172;2023-11-21T04:57:54;10.20;99.90
15815;DHT22;8008;50.024;8.172;2023-11-21T05:00:22;10.20;99.90
15815;DHT22;8008;50.024;8.172;2023-11-21T05:02:50;10.20;99.90
15815;DHT22;8008;50.024;8.172;2023-11-21T05:05:19;10.20;99.90
15815;DHT22;8008;50.024;8.172;2023-11-21T05:07:47;10.30;99.90
15815;DHT22;8008;50.024;8.172;2023-11-21T05:10:17;10.30;99.90
15815;DHT22;8008;50.024;8.172;2023-11-21T05:12:45;10.30;99.90
15815;DHT22;8008;50.024;8.172;2023-11-21T05:15:14;10.30;99.90
15815;DHT22;8008;50.024;8.172;2023-11-21T05:17:42;10.30;99.90
15815;DHT22;8008;50.024;8.172;2023-11-21T05:20:11;10.40;99.90
15815;DHT22;8008;50.024;8.172;2023-11-21T05:22:40;10.40;99.90
15815;DHT22;8008;50.024;8.172;2023-11-21T05:25:08;10.30;99.90
15815;DHT22;8008;50.024;8.172;2023-11-21T05:27:39;10.30;99.90
15815;DHT22;8008;50.024;8.172;2023-11-21T05:30:07;10.40;99.90
15815;DHT22;8008;50.024;8.172;2023-11-21T05:32:38;10.40;99.90
15815;DHT22;8008;50.024;8.172;2023-11-21T05:35:07;10.40;99.90
15815;DHT22;8008;50.024;8.172;2023-11-21T05:37:38;10.40;99.90
15815;DHT22;8008;50.024;8.172;2023-11-21T05:40:07;10.40;99.90
15815;DHT22;8008;50.024;8.172;2023-11-21T05:42:36;10.40;99.90
15815;DHT22;8008;50.024;8.172;2023-11-21T05:45:07;10.40;99.90
15815;DHT22;8008;50.024;8.172;2023-11-21T05:47:38;10.30;99.90
15815;DHT22;8008;50.024;8.172;2023-11-21T05:50:08;10.40;99.90
15815;DHT22;8008;50.024;8.172;2023-11-21T05:52:38;10.40;99.90
15815;DHT22;8008;50.024;8.172;2023-11-21T05:55:07;10.40;99.90
15815;DHT22;8008;50.024;8.172;2023-11-21T05:57:35;10.40;99.90
15815;DHT22;8008;50.024;8.172;2023-11-21T06:00:04;10.40;99.90
15815;DHT22;8008;50.024;8.172;2023-11-21T06:02:39;10.40;99.90
15815;DHT22;8008;50.024;8.172;2023-11-21T06:05:08;10.40;99.90
15815;DHT22;8008;50.024;8.172;2023-11-21T06:07:37;10.50;99.90
15815;DHT22;8008;50.024;8.172;2023-11-21T06:10:08;10.40;99.90
15815;DHT22;8008;50.024;8.172;2023-11-21T06:12:37;10.30;99.90
15815;DHT22;8008;50.024;8.172;2023-11-21T06:15:05;10.30;99.90
15815;DHT22;8008;50.024;8.172;2023-11-21T06:17:36;10.40;99.90
15815;DHT22;8008;50.024;8.172;2023-11-21T06:20:07;10.40;99.90
15815;DHT22;8008;50.024;8.172;2023-11-21T06:22:37;10.30;99.90
15815;DHT22;8008;50.024;8.172;2023-11-21T06:25:06;10.30;99.90
15815;DHT22;8008;50.024;8.172;2023-11-21T06:27:39;10.30;99.90
15815;DHT22;8008;50.024;8.172;2023-11-21T06:30:08;10.30;99.90
15815;DHT22;8008;50.024;8.172;2023-11-21T06:32:37;10.30;99.90
15815;DHT22;8008;50.024;8.172;2023-11-21T06:35:08;10.30;99.90
15815;DHT22;8008;50.024;8.172;2023-11-21T06:37:37;10.30;99.90
15815;DHT22;8008;50.024;8.172;2023-11-21T06:40:06;10.30;99.90
15815;DHT22;8008;50.024;8.172;2023-11-21T06:42:34;10.30;99.90
15815;DHT22;8008;50.024;8.172;2023-11-21T06:45:04;10.40;99.90
15815;DHT22;8008;50.024;8.172;2023-11-21T06:47:32;10.30;99.90
15815;DHT22;8008;50.024;8.172;2023-11-21T06:50:00;10.30;99.90
15815;DHT22;8008;50.024;8.172;2023-11-21T06:52:29;10.30;99.90
15815;DHT22;8008;50.024;8.172;2023-11-21T06:54:57;10.30;99.90
15815;DHT22;8008;50.024;8.172;2023-11-21T06:57:25;10.30;99.90
15815;DHT22;8008;50.024;8.172;2023-11-21T06:59:53;10.30;99.90
15815;DHT22;8008;50.024;8.172;2023-11-21T07:02:24;10.30;99.90
15815;DHT22;8008;50.024;8.172;2023-11-21T07:04:52;10.30;99.90
15815;DHT22;8008;50.024;8.172;2023-11-21T07:07:20;10.30;99.90
15815;DHT22;8008;50.024;8.172;2023-11-21T07:09:49;10.40;99.90
15815;DHT22;8008;50.024;8.172;2023-11-21T07:12:18;10.30;99.90
15815;DHT22;8008;50.024;8.172;2023-11-21T07:14:50;10.40;99.90
15815;DHT22;8008;50.024;8.172;2023-11-21T07:17:18;10.30;99.90
15815;DHT22;8008;50.024;8.172;2023-11-21T07:19:46;10.30;99.90
15815;DHT22;8008;50.024;8.172;2023-11-21T07:22:14;10.40;99.90
15815;DHT22;8008;50.024;8.172;2023-11-21T07:24:43;10.40;99.90
15815;DHT22;8008;50.024;8.172;2023-11-21T07:27:12;10.50;99.90
15815;DHT22;8008;50.024;8.172;2023-11-21T07:29:40;10.50;99.90
15815;DHT22;8008;50.024;8.172;2023-11-21T07:32:08;10.50;99.90
15815;DHT22;8008;50.024;8.172;2023-11-21T07:34:37;10.50;99.90
15815;DHT22;8008;50.024;8.172;2023-11-21T07:37:05;10.50;99.90
15815;DHT22;8008;50.024;8.172;2023-11-21T07:39:33;10.50;99.90
15815;DHT22;8008;50.024;8.172;2023-11-21T07:42:01;10.60;99.90
15815;DHT22;8008;50.024;8.172;2023-11-21T07:44:30;10.50;99.90
15815;DHT22;8008;50.024;8.172;2023-11-21T07:46:58;10.60;99.90
15815;DHT22;8008;50.024;8.172;2023-11-21T07:49:26;10.60;99.90
15815;DHT22;8008;50.024;8.172;2023-11-21T07:51:54;10.60;99.90
15815;DHT22;8008;50.024;8.172;2023-11-21T07:54:22;10.50;99.90
15815;DHT22;8008;50.024;8.172;2023-11-21T07:56:50;10.60;99.90
15815;DHT22;8008;50.024;8.172;2023-11-21T07:59:18;10.60;99.90
15815;DHT22;8008;50.024;8.172;2023-11-21T08:01:47;10.70;99.90
15815;DHT22;8008;50.024;8.172;2023-11-21T08:04:16;10.60;99.90
15815;DHT22;8008;50.024;8.172;2023-11-21T08:06:45;10.60;99.90
15815;DHT22;8008;50.024;8.172;2023-11-21T08:09:14;10.70;99.90
15815;DHT22;8008;50.024;8.172;2023-11-21T08:11:44;10.70;99.90
15815;DHT22;8008;50.024;8.172;2023-11-21T08:14:13;10.60;99.90
15815;DHT22;8008;50.024;8.172;2023-11-21T08:16:41;10.70;99.90
15815;DHT22;8008;50.024;8.172;2023-11-21T08:19:12;10.70;99.90
15815;DHT22;8008;50.024;8.172;2023-11-21T08:21:40;10.60;99.90
15815;DHT22;8008;50.024;8.172;2023-11-21T08:24:09;10.60;99.90
15815;DHT22;8008;50.024;8.172;2023-11-21T08:26:37;10.70;99.90
15815;DHT22;8008;50.024;8.172;2023-11-21T08:29:05;10.70;99.90
15815;DHT22;8008;50.024;8.172;2023-11-21T08:31:34;10.70;99.90
15815;DHT22;8008;50.024;8.172;2023-11-21T08:34:02;10.80;99.90
15815;DHT22;8008;50.024;8.172;2023-11-21T08:36:31;10.80;99.90
15815;DHT22;8008;50.024;8.172;2023-11-21T08:38:59;10.90;99.90
15815;DHT22;8008;50.024;8.172;2023-11-21T08:41:28;10.90;99.90
15815;DHT22;8008;50.024;8.172;2023-11-21T08:43:57;10.90;99.90
15815;DHT22;8008;50.024;8.172;2023-11-21T08:46:25;10.90;99.90
15815;DHT22;8008;50.024;8.172;2023-11-21T08:48:53;10.90;99.90
15815;DHT22;8008;50.024;8.172;2023-11-21T08:51:21;10.80;99.90
15815;DHT22;8008;50.024;8.172;2023-11-21T08:53:50;10.90;99.90
15815;DHT22;8008;50.024;8.172;2023-11-21T08:56:19;10.80;99.90
15815;DHT22;8008;50.024;8.172;2023-11-21T08:58:47;10.80;99.90
15815;DHT22;8008;50.024;8.172;2023-11-21T09:01:17;10.70;99.90
15815;DHT22;8008;50.024;8.172;2023-11-21T09:03:45;10.50;99.90
15815;DHT22;8008;50.024;8.172;2023-11-21T09:06:14;10.60;99.90
15815;DHT22;8008;50.024;8.172;2023-11-21T09:08:42;10.60;99.90
15815;DHT22;8008;50.024;8.172;2023-11-21T09:11:11;10.70;99.90
15815;DHT22;8008;50.024;8.172;2023-11-21T09:13:40;10.80;99.90
15815;DHT22;8008;50.024;8.172;2023-11-21T09:16:08;10.90;99.90
15815;DHT22;8008;50.024;8.172;2023-11-21T09:18:37;10.90;99.90
15815;DHT22;8008;50.024;8.172;2023-11-21T09:21:06;11.10;99.90
15815;DHT22;8008;50.024;8.172;2023-11-21T09:23:36;11.10;99.90
15815;DHT22;8008;50.024;8.172;2023-11-21T09:26:04;11.20;99.90
15815;DHT22;8008;50.024;8.172;2023-11-21T09:28:33;11.20;99.90
15815;DHT22;8008;50.024;8.172;2023-11-21T09:31:04;11.20;99.90
15815;DHT22;8008;50.024;8.172;2023-11-21T09:33:35;11.20;99.90
15815;DHT22;8008;50.024;8.172;2023-11-21T09:36:05;11.30;99.90
15815;DHT22;8008;50.024;8.172;2023-11-21T09:38:33;11.30;99.90
15815;DHT22;8008;50.024;8.172;2023-11-21T09:41:02;11.20;99.90
15815;DHT22;8008;50.024;8.172;2023-11-21T09:43:33;11.30;99.90
15815;DHT22;8008;50.024;8.172;2023-11-21T09:46:02;11.40;99.90
15815;DHT22;8008;50.024;8.172;2023-11-21T09:48:33;11.40;99.90
15815;DHT22;8008;50.024;8.172;2023-11-21T09:51:02;11.40;99.90
15815;DHT22;8008;50.024;8.172;2023-11-21T09:53:32;11.50;99.90
15815;DHT22;8008;50.024;8.172;2023-11-21T09:56:01;11.60;99.90
15815;DHT22;8008;50.024;8.172;2023-11-21T09:58:29;11.70;99.90
15815;DHT22;8008;50.024;8.172;2023-11-21T10:01:01;11.70;99.90
15815;DHT22;8008;50.024;8.172;2023-11-21T10:03:35;11.80;99.90
15815;DHT22;8008;50.024;8.172;2023-11-21T10:06:05;11.80;99.90
15815;DHT22;8008;50.024;8.172;2023-11-21T10:08:35;11.80;99.90
15815;DHT22;8008;50.024;8.172;2023-11-21T10:11:17;11.80;99.90
15815;DHT22;8008;50.024;8.172;2023-11-21T10:13:46;11.80;99.90
15815;DHT22;8008;50.024;8.172;2023-11-21T10:16:18;11.90;99.90
15815;DHT22;8008;50.024;8.172;2023-11-21T10:18:49;11.90;99.90
15815;DHT22;8008;50.024;8.172;2023-11-21T10:21:29;12.00;99.90
15815;DHT22;8008;50.024;8.172;2023-11-21T10:23:57;12.10;99.90
15815;DHT22;8008;50.024;8.172;2023-11-21T10:26:26;11.90;99.90
15815;DHT22;8008;50.024;8.172;2023-11-21T10:29:06;12.00;99.90
15815;DHT22;8008;50.024;8.172;2023-11-21T10:31:36;12.00;99.90
15815;DHT22;8008;50.024;8.172;2023-11-21T10:34:14;12.00;99.90
15815;DHT22;8008;50.024;8.172;2023-11-21T10:36:42;12.10;99.90
15815;DHT22;8008;50.024;8.172;2023-11-21T10:39:14;12.20;99.90
15815;DHT22;8008;50.024;8.172;2023-11-21T10:41:44;12.30;99.90
15815;DHT22;8008;50.024;8.172;2023-11-21T10:44:14;12.20;99.90
15815;DHT22;8008;50.024;8.172;2023-11-21T10:46:49;12.20;99.90
15815;DHT22;8008;50.024;8.172;2023-11-21T10:49:18;12.20;99.90
15815;DHT22;8008;50.024;8.172;2023-11-21T10:51:46;12.20;99.90
15815;DHT22;8008;50.024;8.172;2023-11-21T10:54:18;12.20;99.90
15815;DHT22;8008;50.024;8.172;2023-11-21T10:56:48;12.20;99.90
15815;DHT22;8008;50.024;8.172;2023-11-21T10:59:18;12.30;99.90
15815;DHT22;8008;50.024;8.172;2023-11-21T11:01:50;12.50;99.90
15815;DHT22;8008;50.024;8.172;2023-11-21T11:04:19;12.50;99.90
15815;DHT22;8008;50.024;8.172;2023-11-21T11:06:54;12.50;99.90
15815;DHT22;8008;50.024;8.172;2023-11-21T11:09:23;12.60;99.90
15815;DHT22;8008;50.024;8.172;2023-11-21T11:11:51;12.60;99.90
15815;DHT22;8008;50.024;8.172;2023-11-21T11:14:20;12.60;99.90
15815;DHT22;8008;50.024;8.172;2023-11-21T11:16:54;12.70;99.90
15815;DHT22;8008;50.024;8.172;2023-11-21T11:19:22;12.70;99.90
15815;DHT22;8008;50.024;8.172;2023-11-21T11:22:00;12.80;99.90
15815;DHT22;8008;50.024;8.172;2023-11-21T11:24:49;12.80;99.90
15815;DHT22;8008;50.024;8.172;2023-11-21T11:27:29;12.80;99.90
15815;DHT22;8008;50.024;8.172;2023-11-21T11:30:11;12.90;99.90
15815;DHT22;8008;50.024;8.172;2023-11-21T11:32:52;12.90;99.90
15815;DHT22;8008;50.024;8.172;2023-11-21T11:35:29;12.90;99.90
15815;DHT22;8008;50.024;8.172;2023-11-21T11:38:01;12.90;99.90
15815;DHT22;8008;50.024;8.172;2023-11-21T11:40:39;12.90;99.90
15815;DHT22;8008;50.024;8.172;2023-11-21T11:43:07;12.80;99.90
15815;DHT22;8008;50.024;8.172;2023-11-21T11:45:35;12.70;99.90
15815;DHT22;8008;50.024;8.172;2023-11-21T11:48:11;12.60;99.90
15815;DHT22;8008;50.024;8.172;2023-11-21T11:53:25;12.60;99.90
15815;DHT22;8008;50.024;8.172;2023-11-21T11:56:24;12.80;99.90
15815;DHT22;8008;50.024;8.172;2023-11-21T11:58:54;12.80;99.90
15815;DHT22;8008;50.024;8.172;2023-11-21T12:01:24;12.90;99.90
15815;DHT22;8008;50.024;8.172;2023-11-21T12:04:26;13.00;99.90
15815;DHT22;8008;50.024;8.172;2023-11-21T12:07:01;12.90;99.90
15815;DHT22;8008;50.024;8.172;2023-11-21T12:09:32;13.00;99.90
15815;DHT22;8008;50.024;8.172;2023-11-21T12:12:00;13.00;99.90
15815;DHT22;8008;50.024;8.172;2023-11-21T12:14:30;13.00;99.90
15815;DHT22;8008;50.024;8.172;2023-11-21T12:16:58;12.80;99.90
15815;DHT22;8008;50.024;8.172;2023-11-21T12:19:28;12.70;99.90
15815;DHT22;8008;50.024;8.172;2023-11-21T12:21:56;12.60;99.90
15815;DHT22;8008;50.024;8.172;2023-11-21T12:24:24;12.60;99.90
15815;DHT22;8008;50.024;8.172;2023-11-21T12:26:55;12.50;99.90
15815;DHT22;8008;50.024;8.172;2023-11-21T12:29:23;12.50;99.90
15815;DHT22;8008;50.024;8.172;2023-11-21T12:31:51;12.50;99.90
15815;DHT22;8008;50.024;8.172;2023-11-21T12:34:19;12.50;99.90
15815;DHT22;8008;50.024;8.172;2023-11-21T12:36:49;12.40;99.90
15815;DHT22;8008;50.024;8.172;2023-11-21T12:39:17;12.50;99.90
15815;DHT22;8008;50.024;8.172;2023-11-21T12:41:49;12.40;99.90
15815;DHT22;8008;50.024;8.172;2023-11-21T12:44:17;12.50;99.90
15815;DHT22;8008;50.024;8.172;2023-11-21T12:46:45;12.50;99.90
15815;DHT22;8008;50.024;8.172;2023-11-21T12:49:14;12.50;99.90
15815;DHT22;8008;50.024;8.172;2023-11-21T12:51:45;12.50;99.90
15815;DHT22;8008;50.024;8.172;2023-11-21T12:54:15;12.40;99.90
15815;DHT22;8008;50.024;8.172;2023-11-21T12:56:45;12.50;99.90
15815;DHT22;8008;50.024;8.172;2023-11-21T12:59:15;12.50;99.90
15815;DHT22;8008;50.024;8.172;2023-11-21T13:01:45;12.40;99.90
15815;DHT22;8008;50.024;8.172;2023-11-21T13:04:13;12.50;99.90
15815;DHT22;8008;50.024;8.172;2023-11-21T13:06:41;12.50;99.90
15815;DHT22;8008;50.024;8.172;2023-11-21T13:09:10;12.50;99.90
15815;DHT22;8008;50.024;8.172;2023-11-21T13:11:39;12.40;99.90
15815;DHT22;8008;50.024;8.172;2023-11-21T13:14:08;12.30;99.90
15815;DHT22;8008;50.024;8.172;2023-11-21T13:16:38;12.30;99.90
15815;DHT22;8008;50.024;8.172;2023-11-21T13:19:12;12.20;99.90
15815;DHT22;8008;50.024;8.172;2023-11-21T13:21:40;12.20;99.90
15815;DHT22;8008;50.024;8.172;2023-11-21T13:24:09;12.20;99.90
15815;DHT22;8008;50.024;8.172;2023-11-21T13:26:37;12.10;99.90
15815;DHT22;8008;50.024;8.172;2023-11-21T13:29:06;12.00;99.90
15815;DHT22;8008;50.024;8.172;2023-11-21T13:31:35;12.00;99.90
15815;DHT22;8008;50.024;8.172;2023-11-21T13:34:04;12.10;99.90
15815;DHT22;8008;50.024;8.172;2023-11-21T13:36:35;12.10;99.90
15815;DHT22;8008;50.024;8.172;2023-11-21T13:39:03;12.10;99.90
15815;DHT22;8008;50.024;8.172;2023-11-21T13:41:35;12.10;99.90
15815;DHT22;8008;50.024;8.172;2023-11-21T13:44:07;12.10;99.90
15815;DHT22;8008;50.024;8.172;2023-11-21T13:46:43;12.10;99.90
15815;DHT22;8008;50.024;8.172;2023-11-21T13:49:12;12.10;99.90
15815;DHT22;8008;50.024;8.172;2023-11-21T13:51:42;12.10;99.90
15815;DHT22;8008;50.024;8.172;2023-11-21T13:54:12;12.10;99.90
15815;DHT22;8008;50.024;8.172;2023-11-21T13:56:41;12.10;99.90
15815;DHT22;8008;50.024;8.172;2023-11-21T13:59:13;12.20;99.90
15815;DHT22;8008;50.024;8.172;2023-11-21T14:01:48;12.10;99.90
15815;DHT22;8008;50.024;8.172;2023-11-21T14:04:24;12.10;99.90
15815;DHT22;8008;50.024;8.172;2023-11-21T14:07:13;12.10;99.90
15815;DHT22;8008;50.024;8.172;2023-11-21T14:09:58;12.10;99.90
15815;DHT22;8008;50.024;8.172;2023-11-21T14:12:27;12.20;99.90
15815;DHT22;8008;50.024;8.172;2023-11-21T14:14:57;12.20;99.90
15815;DHT22;8008;50.024;8.172;2023-11-21T14:17:25;12.20;99.90
15815;DHT22;8008;50.024;8.172;2023-11-21T14:19:54;12.20;99.90
15815;DHT22;8008;50.024;8.172;2023-11-21T14:22:23;12.20;99.90
15815;DHT22;8008;50.024;8.172;2023-11-21T14:24:52;12.10;99.90
15815;DHT22;8008;50.024;8.172;2023-11-21T14:27:22;12.00;99.90
15815;DHT22;8008;50.024;8.172;2023-11-21T14:29:51;12.00;99.90
15815;DHT22;8008;50.024;8.172;2023-11-21T14:32:20;11.90;99.90
15815;DHT22;8008;50.024;8.172;2023-11-21T14:34:49;11.90;99.90
15815;DHT22;8008;50.024;8.172;2023-11-21T14:37:17;11.90;99.90
15815;DHT22;8008;50.024;8.172;2023-11-21T14:39:46;11.90;99.90
15815;DHT22;8008;50.024;8.172;2023-11-21T14:42:16;11.80;99.90
15815;DHT22;8008;50.024;8.172;2023-11-21T14:44:51;11.80;99.90
15815;DHT22;8008;50.024;8.172;2023-11-21T14:47:20;11.80;99.90
15815;DHT22;8008;50.024;8.172;2023-11-21T14:49:54;11.80;99.90
15815;DHT22;8008;50.024;8.172;2023-11-21T14:52:23;11.70;99.90
15815;DHT22;8008;50.024;8.172;2023-11-21T14:55:00;11.70;99.90
15815;DHT22;8008;50.024;8.172;2023-11-21T14:57:42;11.70;99.90
15815;DHT22;8008;50.024;8.172;2023-11-21T15:00:15;11.70;99.90
15815;DHT22;8008;50.024;8.172;2023-11-21T15:03:05;11.60;99.90
15815;DHT22;8008;50.024;8.172;2023-11-21T15:05:34;11.60;99.90
15815;DHT22;8008;50.024;8.172;2023-11-21T15:08:02;11.60;99.90
15815;DHT22;8008;50.024;8.172;2023-11-21T15:10:45;11.60;99.90
15815;DHT22;8008;50.024;8.172;2023-11-21T15:13:14;11.50;99.90
15815;DHT22;8008;50.024;8.172;2023-11-21T15:15:43;11.50;99.90
15815;DHT22;8008;50.024;8.172;2023-11-21T15:18:12;11.60;99.90
15815;DHT22;8008;50.024;8.172;2023-11-21T15:20:40;11.50;99.90
15815;DHT22;8008;50.024;8.172;2023-11-21T15:23:09;11.60;99.90
15815;DHT22;8008;50.024;8.172;2023-11-21T15:25:39;11.50;99.90
15815;DHT22;8008;50.024;8.172;2023-11-21T15:28:07;11.40;99.90
15815;DHT22;8008;50.024;8.172;2023-11-21T15:30:35;11.40;99.90
15815;DHT22;8008;50.024;8.172;2023-11-21T15:33:03;11.30;99.90
15815;DHT22;8008;50.024;8.172;2023-11-21T15:35:33;11.30;99.90
15815;DHT22;8008;50.024;8.172;2023-11-21T15:38:04;11.30;99.90
15815;DHT22;8008;50.024;8.172;2023-11-21T15:40:34;11.30;99.90
15815;DHT22;8008;50.024;8.172;2023-11-21T15:43:03;11.40;99.90
15815;DHT22;8008;50.024;8.172;2023-11-21T15:45:31;11.40;99.90
15815;DHT22;8008;50.024;8.172;2023-11-21T15:47:59;11.40;99.90
15815;DHT22;8008;50.024;8.172;2023-11-21T15:50:28;11.40;99.90
15815;DHT22;8008;50.024;8.172;2023-11-21T15:52:59;11.40;99.90
15815;DHT22;8008;50.024;8.172;2023-11-21T15:55:29;11.40;99.90
15815;DHT22;8008;50.024;8.172;2023-11-21T15:57:57;11.40;99.90
15815;DHT22;8008;50.024;8.172;2023-11-21T16:00:25;11.30;99.90
15815;DHT22;8008;50.024;8.172;2023-11-21T16:02:53;11.30;99.90
15815;DHT22;8008;50.024;8.172;2023-11-21T16:05:22;11.30;99.90
15815;DHT22;8008;50.024;8.172;2023-11-21T16:07:52;11.20;99.90
15815;DHT22;8008;50.024;8.172;2023-11-21T16:10:23;11.30;99.90
15815;DHT22;8008;50.024;8.172;2023-11-21T16:12:51;11.30;99.90
15815;DHT22;8008;50.024;8.172;2023-11-21T16:15:19;11.30;99.90
15815;DHT22;8008;50.024;8.172;2023-11-21T16:17:49;11.30;99.90
15815;DHT22;8008;50.024;8.172;2023-11-21T16:20:17;11.30;99.90
15815;DHT22;8008;50.024;8.172;2023-11-21T16:22:45;11.30;99.90
15815;DHT22;8008;50.024;8.172;2023-11-21T16:25:13;11.30;99.90
15815;DHT22;8008;50.024;8.172;2023-11-21T16:27:43;11.30;99.90
15815;DHT22;8008;50.024;8.172;2023-11-21T16:30:11;11.40;99.90
15815;DHT22;8008;50.024;8.172;2023-11-21T16:32:39;11.40;99.90
15815;DHT22;8008;50.024;8.172;2023-11-21T16:35:08;11.30;99.90
15815;DHT22;8008;50.024;8.172;2023-11-21T16:37:36;11.20;99.90
15815;DHT22;8008;50.024;8.172;2023-11-21T16:40:05;11.20;99.90
15815;DHT22;8008;50.024;8.172;2023-11-21T16:42:35;11.30;99.90
15815;DHT22;8008;50.024;8.172;2023-11-21T16:45:07;11.30;99.90
15815;DHT22;8008;50.024;8.172;2023-11-21T16:47:35;11.30;99.90
15815;DHT22;8008;50.024;8.172;2023-11-21T16:50:05;11.30;99.90
15815;DHT22;8008;50.024;8.172;2023-11-21T16:52:33;11.30;99.90
15815;DHT22;8008;50.024;8.172;2023-11-21T16:55:01;11.30;99.90
15815;DHT22;8008;50.024;8.172;2023-11-21T16:57:29;11.30;99.90
15815;DHT22;8008;50.024;8.172;2023-11-21T16:59:59;11.20;99.90
15815;DHT22;8008;50.024;8.172;2023-11-21T17:02:29;11.20;99.90
15815;DHT22;8008;50.024;8.172;2023-11-21T17:04:57;11.10;99.90
15815;DHT22;8008;50.024;8.172;2023-11-21T17:07:25;11.20;99.90
15815;DHT22;8008;50.024;8.172;2023-11-21T17:09:55;11.20;99.90
15815;DHT22;8008;50.024;8.172;2023-11-21T17:12:23;11.20;99.90
15815;DHT22;8008;50.024;8.172;2023-11-21T17:14:52;11.20;99.90
15815;DHT22;8008;50.024;8.172;2023-11-21T17:17:20;11.10;99.90
15815;DHT22;8008;50.024;8.172;2023-11-21T17:19:50;11.20;99.90
15815;DHT22;8008;50.024;8.172;2023-11-21T17:22:18;11.20;99.90
15815;DHT22;8008;50.024;8.172;2023-11-21T17:24:48;11.20;99.90
15815;DHT22;8008;50.024;8.172;2023-11-21T17:27:16;11.20;99.90
15815;DHT22;8008;50.024;8.172;2023-11-21T17:29:44;11.20;99.90
15815;DHT22;8008;50.024;8.172;2023-11-21T17:32:12;11.20;99.90
15815;DHT22;8008;50.024;8.172;2023-11-21T17:34:42;11.20;99.90
15815;DHT22;8008;50.024;8.172;2023-11-21T17:37:12;11.30;99.90
15815;DHT22;8008;50.024;8.172;2023-11-21T17:39:40;11.20;99.90
15815;DHT22;8008;50.024;8.172;2023-11-21T17:42:08;11.20;99.90
15815;DHT22;8008;50.024;8.172;2023-11-21T17:44:37;11.20;99.90
15815;DHT22;8008;50.024;8.172;2023-11-21T17:47:05;11.10;99.90
15815;DHT22;8008;50.024;8.172;2023-11-21T17:49:36;11.20;99.90
15815;DHT22;8008;50.024;8.172;2023-11-21T17:52:04;11.20;99.90
15815;DHT22;8008;50.024;8.172;2023-11-21T17:54:34;11.20;99.90
15815;DHT22;8008;50.024;8.172;2023-11-21T17:57:06;11.20;99.90
15815;DHT22;8008;50.024;8.172;2023-11-21T17:59:37;11.20;99.90
15815;DHT22;8008;50.024;8.172;2023-11-21T18:02:07;11.20;99.90
15815;DHT22;8008;50.024;8.172;2023-11-21T18:04:36;11.20;99.90
15815;DHT22;8008;50.024;8.172;2023-11-21T18:07:04;11.10;99.90
15815;DHT22;8008;50.024;8.172;2023-11-21T18:09:31;11.10;99.90
15815;DHT22;8008;50.024;8.172;2023-11-21T18:12:01;11.10;99.90
15815;DHT22;8008;50.024;8.172;2023-11-21T18:14:29;11.10;99.90
15815;DHT22;8008;50.024;8.172;2023-11-21T18:16:57;11.20;99.90
15815;DHT22;8008;50.024;8.172;2023-11-21T18:19:25;11.10;99.90
15815;DHT22;8008;50.024;8.172;2023-11-21T18:21:54;11.10;99.90
15815;DHT22;8008;50.024;8.172;2023-11-21T18:24:22;11.20;99.90
15815;DHT22;8008;50.024;8.172;2023-11-21T18:26:50;11.20;99.90
15815;DHT22;8008;50.024;8.172;2023-11-21T18:29:20;11.20;99.90
15815;DHT22;8008;50.024;8.172;2023-11-21T18:31:48;11.20;99.90
15815;DHT22;8008;50.024;8.172;2023-11-21T18:34:16;11.20;99.90
15815;DHT22;8008;50.024;8.172;2023-11-21T18:36:44;11.20;99.90
15815;DHT22;8008;50.024;8.172;2023-11-21T18:39:12;11.20;99.90
15815;DHT22;8008;50.024;8.172;2023-11-21T18:41:43;11.20;99.90
15815;DHT22;8008;50.024;8.172;2023-11-21T18:44:12;11.20;99.90
15815;DHT22;8008;50.024;8.172;2023-11-21T18:46:41;11.10;99.90
15815;DHT22;8008;50.024;8.172;2023-11-21T18:49:09;11.10;99.90
15815;DHT22;8008;50.024;8.172;2023-11-21T18:51:38;11.10;99.90
15815;DHT22;8008;50.024;8.172;2023-11-21T18:54:06;11.00;99.90
15815;DHT22;8008;50.024;8.172;2023-11-21T18:56:34;11.00;99.90
15815;DHT22;8008;50.024;8.172;2023-11-21T18:59:02;11.00;99.90
15815;DHT22;8008;50.024;8.172;2023-11-21T19:01:35;11.00;99.90
15815;DHT22;8008;50.024;8.172;2023-11-21T19:04:04;11.00;99.90
15815;DHT22;8008;50.024;8.172;2023-11-21T19:06:32;11.00;99.90
15815;DHT22;8008;50.024;8.172;2023-11-21T19:09:00;11.00;99.90
15815;DHT22;8008;50.024;8.172;2023-11-21T19:11:30;11.00;99.90
15815;DHT22;8008;50.024;8.172;2023-11-21T19:13:58;11.10;99.90
15815;DHT22;8008;50.024;8.172;2023-11-21T19:16:26;11.10;99.90
15815;DHT22;8008;50.024;8.172;2023-11-21T19:18:54;11.10;99.90
15815;DHT22;8008;50.024;8.172;2023-11-21T19:21:23;11.10;99.90
15815;DHT22;8008;50.024;8.172;2023-11-21T19:23:51;11.10;99.90
15815;DHT22;8008;50.024;8.172;2023-11-21T19:26:20;11.00;99.90
15815;DHT22;8008;50.024;8.172;2023-11-21T19:28:48;11.00;99.90
15815;DHT22;8008;50.024;8.172;2023-11-21T19:31:16;11.00;99.90
15815;DHT22;8008;50.024;8.172;2023-11-21T19:33:45;11.00;99.90
15815;DHT22;8008;50.024;8.172;2023-11-21T19:36:14;11.00;99.90
15815;DHT22;8008;50.024;8.172;2023-11-21T19:38:43;10.90;99.90
15815;DHT22;8008;50.024;8.172;2023-11-21T19:41:15;10.90;99.90
15815;DHT22;8008;50.024;8.172;2023-11-21T19:43:44;10.90;99.90
15815;DHT22;8008;50.024;8.172;2023-11-21T19:46:12;10.80;99.90
15815;DHT22;8008;50.024;8.172;2023-11-21T19:48:40;10.60;99.90
15815;DHT22;8008;50.024;8.172;2023-11-21T19:51:09;10.30;99.90
15815;DHT22;8008;50.024;8.172;2023-11-21T19:53:38;10.10;99.90
15815;DHT22;8008;50.024;8.172;2023-11-21T19:56:08;10.10;99.90
15815;DHT22;8008;50.024;8.172;2023-11-21T19:58:37;10.10;99.90
15815;DHT22;8008;50.024;8.172;2023-11-21T20:01:06;10.00;99.90
15815;DHT22;8008;50.024;8.172;2023-11-21T20:03:34;10.00;99.90